createdAt,value
2023-10-18T00:00:59.844Z,3.25
2023-10-18T00:03:30.490Z,3.36
2023-10-18T00:05:58.803Z,3.42
2023-10-18T00:08:29.755Z,3.41
2023-10-18T00:11:01.504Z,3.39
2023-10-18T00:13:29.720Z,3.35
2023-10-18T00:16:01.966Z,3.30
2023-10-18T00:18:30.740Z,3.20
2023-10-18T00:21:02.232Z,3.12
2023-10-18T00:23:33.010Z,3.09
2023-10-18T00:26:01.756Z,3.18
2023-10-18T00:28:29.441Z,3.14
2023-10-18T00:30:57.564Z,3.10
2023-10-18T00:33:25.377Z,3.05
2023-10-18T00:35:58.806Z,3.04
2023-10-18T00:38:26.672Z,3.04
2023-10-18T00:40:58.270Z,3.04
2023-10-18T00:43:27.912Z,3.01
2023-10-18T00:45:57.892Z,3.03
2023-10-18T00:48:29.118Z,2.99
2023-10-18T00:51:00.205Z,2.94
2023-10-18T00:53:32.070Z,2.93
2023-10-18T00:56:02.210Z,2.89
2023-10-18T00:58:30.930Z,2.86
2023-10-18T01:00:59.837Z,2.84
2023-10-18T01:03:34.239Z,2.83
2023-10-18T01:06:05.367Z,2.81
2023-10-18T01:08:38.976Z,2.78
2023-10-18T01:11:11.365Z,2.79
2023-10-18T01:13:41.834Z,2.74
2023-10-18T01:16:14.351Z,2.67
2023-10-18T01:18:44.589Z,2.65
2023-10-18T01:21:16.065Z,2.68
2023-10-18T01:23:46.104Z,2.64
2023-10-18T01:26:15.921Z,2.69
2023-10-18T01:28:44.312Z,2.71
2023-10-18T01:31:14.182Z,2.72
2023-10-18T01:33:44.983Z,2.75
2023-10-18T01:36:16.397Z,2.69
2023-10-18T01:38:45.648Z,2.72
2023-10-18T01:41:18.381Z,2.70
2023-10-18T01:43:48.736Z,2.67
2023-10-18T01:46:16.576Z,2.66
2023-10-18T01:48:51.686Z,2.66
2023-10-18T01:51:20.832Z,2.62
2023-10-18T01:53:51.668Z,2.53
2023-10-18T01:56:23.098Z,2.42
2023-10-18T01:58:51.150Z,2.38
2023-10-18T02:01:19.652Z,2.41
2023-10-18T02:03:51.760Z,2.41
2023-10-18T02:06:21.547Z,2.44
2023-10-18T02:08:51.455Z,2.43
2023-10-18T02:11:20.768Z,2.39
2023-10-18T02:13:49.043Z,2.32
2023-10-18T02:16:17.548Z,2.40
2023-10-18T02:18:47.959Z,2.42
2023-10-18T02:21:16.686Z,2.44
2023-10-18T02:23:49.411Z,2.50
2023-10-18T02:26:32.654Z,2.49
2023-10-18T02:29:07.021Z,2.48
2023-10-18T02:31:35.564Z,2.47
2023-10-18T02:34:18.893Z,2.40
2023-10-18T02:36:57.250Z,2.33
2023-10-18T02:39:29.186Z,2.34
2023-10-18T02:41:58.570Z,2.34
2023-10-18T02:44:30.351Z,2.34
2023-10-18T02:47:08.839Z,2.37
2023-10-18T02:49:36.544Z,2.31
2023-10-18T02:52:06.249Z,2.27
2023-10-18T02:54:36.944Z,2.26
2023-10-18T02:57:06.256Z,2.29
2023-10-18T02:59:36.938Z,2.25
2023-10-18T03:02:14.743Z,2.21
2023-10-18T03:04:44.167Z,2.15
2023-10-18T03:07:14.524Z,2.16
2023-10-18T03:09:42.838Z,2.15
2023-10-18T03:12:16.006Z,2.10
2023-10-18T03:14:55.995Z,2.08
2023-10-18T03:17:26.704Z,1.99
2023-10-18T03:19:57.044Z,2.04
2023-10-18T03:22:27.866Z,2.04
2023-10-18T03:24:56.501Z,2.01
2023-10-18T03:27:26.686Z,2.08
2023-10-18T03:29:59.736Z,2.06
2023-10-18T03:32:28.693Z,2.08
2023-10-18T03:34:57.652Z,2.09
2023-10-18T03:37:27.266Z,2.10
2023-10-18T03:39:55.421Z,2.12
2023-10-18T03:42:33.677Z,2.07
2023-10-18T03:45:11.933Z,2.05
2023-10-18T03:47:40.449Z,1.96
2023-10-18T03:50:14.565Z,1.96
2023-10-18T03:52:45.114Z,1.97
2023-10-18T03:55:18.258Z,2.02
2023-10-18T03:57:47.250Z,2.00
2023-10-18T04:00:38.880Z,1.96
2023-10-18T04:03:13.366Z,2.03
2023-10-18T04:05:44.529Z,1.89
2023-10-18T04:08:15.782Z,1.93
2023-10-18T04:10:44.525Z,1.95
2023-10-18T04:13:15.800Z,1.93
2023-10-18T04:15:47.853Z,1.89
2023-10-18T04:18:24.641Z,1.83
2023-10-18T04:20:53.296Z,1.85
2023-10-18T04:23:21.635Z,1.86
2023-10-18T04:25:59.008Z,1.86
2023-10-18T04:28:27.089Z,1.85
2023-10-18T04:31:01.355Z,1.85
2023-10-18T04:33:36.107Z,1.81
2023-10-18T04:36:12.451Z,1.82
2023-10-18T04:38:44.211Z,1.73
2023-10-18T04:41:24.128Z,1.64
2023-10-18T04:43:52.996Z,1.60
2023-10-18T04:46:28.430Z,1.56
2023-10-18T04:49:16.771Z,1.63
2023-10-18T04:51:46.924Z,1.72
2023-10-18T04:54:19.469Z,1.75
2023-10-18T04:56:50.213Z,1.79
2023-10-18T04:59:30.917Z,1.82
2023-10-18T05:02:00.806Z,1.79
2023-10-18T05:04:33.141Z,1.76
2023-10-18T05:07:03.423Z,1.71
2023-10-18T05:09:33.075Z,1.67
2023-10-18T05:12:07.750Z,1.65
2023-10-18T05:14:52.613Z,1.67
2023-10-18T05:17:24.555Z,1.62
2023-10-18T05:19:52.984Z,1.60
2023-10-18T05:22:25.401Z,1.63
2023-10-18T05:25:12.821Z,1.65
2023-10-18T05:27:47.769Z,1.63
2023-10-18T05:30:17.116Z,1.61
2023-10-18T05:33:04.411Z,1.53
2023-10-18T05:35:35.130Z,1.57
2023-10-18T05:38:20.449Z,1.64
2023-10-18T05:40:56.647Z,1.68
2023-10-18T05:43:30.699Z,1.68
2023-10-18T05:45:59.243Z,1.64
2023-10-18T05:48:33.171Z,1.56
2023-10-18T05:51:06.484Z,1.55
2023-10-18T05:53:34.787Z,1.53
2023-10-18T05:56:05.675Z,1.49
2023-10-18T05:58:33.648Z,1.49
2023-10-18T06:01:04.245Z,1.50
2023-10-18T06:03:40.911Z,1.51
2023-10-18T06:06:09.243Z,1.54
2023-10-18T06:08:38.023Z,1.54
2023-10-18T06:11:08.132Z,1.62
2023-10-18T06:13:37.423Z,1.66
2023-10-18T06:16:19.365Z,1.67
2023-10-18T06:18:49.832Z,1.64
2023-10-18T06:21:21.117Z,1.67
2023-10-18T06:23:56.969Z,1.69
2023-10-18T06:26:31.475Z,1.76
2023-10-18T06:29:03.307Z,1.84
2023-10-18T06:31:31.860Z,1.89
2023-10-18T06:34:04.016Z,1.90
2023-10-18T06:36:33.650Z,1.93
2023-10-18T06:39:01.549Z,1.98
2023-10-18T06:41:32.461Z,2.03
2023-10-18T06:44:00.291Z,2.04
2023-10-18T06:46:30.095Z,2.04
2023-10-18T06:49:09.941Z,2.08
2023-10-18T06:51:44.733Z,2.17
2023-10-18T06:54:15.745Z,2.28
2023-10-18T06:56:46.999Z,2.35
2023-10-18T06:59:14.908Z,2.37
2023-10-18T07:01:54.822Z,2.39
2023-10-18T07:04:29.007Z,2.42
2023-10-18T07:06:58.720Z,2.48
2023-10-18T07:09:32.589Z,2.53
2023-10-18T07:12:05.134Z,2.58
2023-10-18T07:14:33.230Z,2.66
2023-10-18T07:17:05.981Z,2.73
2023-10-18T07:19:42.740Z,2.81
2023-10-18T07:22:19.531Z,2.92
2023-10-18T07:24:54.861Z,3.01
2023-10-18T07:27:24.814Z,3.09
2023-10-18T07:29:52.662Z,3.14
2023-10-18T07:32:25.802Z,3.20
2023-10-18T07:34:55.317Z,3.28
2023-10-18T07:37:26.537Z,3.36
2023-10-18T07:39:58.748Z,3.40
2023-10-18T07:42:34.711Z,3.49
2023-10-18T07:45:05.357Z,3.57
2023-10-18T07:47:34.308Z,3.63
2023-10-18T07:50:02.244Z,3.72
2023-10-18T07:52:31.349Z,3.79
2023-10-18T07:54:59.489Z,3.88
2023-10-18T07:57:34.780Z,3.96
2023-10-18T08:02:57.948Z,4.11
2023-10-18T08:05:32.229Z,4.20
2023-10-18T08:08:10.387Z,4.24
2023-10-18T08:10:38.152Z,4.34
2023-10-18T08:13:09.436Z,4.42
2023-10-18T08:15:38.256Z,4.55
2023-10-18T08:18:16.948Z,4.66
2023-10-18T08:21:04.733Z,4.76
2023-10-18T08:23:39.750Z,4.88
2023-10-18T08:26:08.112Z,4.92
2023-10-18T08:28:47.873Z,4.98
2023-10-18T08:31:18.517Z,5.06
2023-10-18T08:33:50.685Z,5.13
2023-10-18T08:36:19.744Z,5.18
2023-10-18T08:38:47.950Z,5.25
2023-10-18T08:41:17.244Z,5.35
2023-10-18T08:43:59.320Z,5.48
2023-10-18T08:46:28.717Z,5.55
2023-10-18T08:48:58.983Z,5.62
2023-10-18T08:51:29.262Z,5.74
2023-10-18T08:53:59.879Z,5.87
2023-10-18T08:56:30.826Z,5.98
2023-10-18T08:59:00.974Z,6.08
2023-10-18T09:01:36.205Z,6.21
2023-10-18T09:04:08.413Z,6.36
2023-10-18T09:06:36.978Z,6.53
2023-10-18T09:09:06.874Z,6.72
2023-10-18T09:11:37.704Z,6.91
2023-10-18T09:14:08.715Z,7.09
2023-10-18T09:16:39.372Z,7.27
2023-10-18T09:19:11.395Z,7.54
2023-10-18T09:21:45.175Z,7.73
2023-10-18T09:24:14.810Z,7.90
2023-10-18T09:26:45.952Z,8.02
2023-10-18T09:29:13.660Z,8.12
2023-10-18T09:31:56.469Z,8.18
2023-10-18T09:34:34.962Z,8.24
2023-10-18T09:37:05.881Z,8.30
2023-10-18T09:39:39.670Z,8.37
2023-10-18T09:42:14.408Z,8.31
2023-10-18T09:44:42.647Z,8.37
2023-10-18T09:47:10.944Z,8.36
2023-10-18T09:49:42.384Z,8.34
2023-10-18T09:52:13.195Z,8.26
2023-10-18T09:54:50.755Z,8.28
2023-10-18T09:57:24.815Z,8.36
2023-10-18T09:59:55.938Z,8.38
2023-10-18T10:02:25.495Z,8.40
2023-10-18T10:04:56.908Z,8.40
2023-10-18T10:07:38.435Z,8.43
2023-10-18T10:10:10.769Z,8.50
2023-10-18T10:12:43.005Z,8.46
2023-10-18T10:15:15.836Z,8.54
2023-10-18T10:17:48.642Z,8.67
2023-10-18T10:20:23.255Z,8.61
2023-10-18T10:22:51.798Z,8.66
2023-10-18T10:25:39.162Z,8.64
2023-10-18T10:28:16.629Z,8.58
2023-10-18T10:30:45.016Z,8.66
2023-10-18T10:33:14.335Z,8.72
2023-10-18T10:35:48.953Z,8.68
2023-10-18T10:38:20.035Z,8.65
2023-10-18T10:40:51.030Z,8.71
2023-10-18T10:43:20.702Z,8.74
2023-10-18T10:45:59.154Z,8.73
2023-10-18T10:48:38.296Z,8.77
2023-10-18T10:51:13.507Z,8.75
2023-10-18T10:53:49.254Z,8.74
2023-10-18T10:56:22.174Z,8.80
2023-10-18T10:58:56.578Z,8.79
2023-10-18T11:01:42.203Z,8.83
2023-10-18T11:04:16.238Z,8.99
2023-10-18T11:06:45.899Z,9.06
2023-10-18T11:09:17.948Z,9.07
2023-10-18T11:11:47.179Z,9.04
2023-10-18T11:14:19.823Z,9.05
2023-10-18T11:16:52.419Z,9.10
2023-10-18T11:19:25.642Z,9.24
2023-10-18T11:21:56.256Z,9.24
2023-10-18T11:24:23.898Z,9.19
2023-10-18T11:26:52.678Z,9.24
2023-10-18T11:29:25.658Z,9.20
2023-10-18T11:31:56.589Z,9.25
2023-10-18T11:34:25.212Z,9.22
2023-10-18T11:36:56.229Z,9.23
2023-10-18T11:39:29.716Z,9.37
2023-10-18T11:41:59.076Z,9.30
2023-10-18T11:44:28.048Z,9.36
2023-10-18T11:47:03.104Z,9.33
2023-10-18T11:49:38.527Z,9.40
2023-10-18T11:52:14.481Z,9.36
2023-10-18T11:54:42.266Z,9.37
2023-10-18T11:57:26.353Z,9.39
2023-10-18T11:59:56.126Z,9.43
2023-10-18T12:02:27.546Z,9.43
2023-10-18T12:04:55.581Z,9.43
2023-10-18T12:07:25.278Z,9.42
2023-10-18T12:09:53.766Z,9.41
2023-10-18T12:12:21.680Z,9.44
2023-10-18T12:14:50.963Z,9.43
2023-10-18T12:17:18.931Z,9.38
2023-10-18T12:19:46.707Z,9.44
2023-10-18T12:22:16.973Z,9.50
2023-10-18T12:24:46.021Z,9.50
2023-10-18T12:27:35.545Z,9.54
2023-10-18T12:30:31.588Z,9.54
2023-10-18T12:33:06.306Z,9.60
2023-10-18T12:35:34.895Z,9.65
2023-10-18T12:38:14.348Z,9.67
2023-10-18T12:40:53.105Z,9.67
2023-10-18T12:43:22.703Z,9.70
2023-10-18T12:45:52.398Z,9.69
2023-10-18T12:48:24.758Z,9.67
2023-10-18T12:50:52.876Z,9.66
2023-10-18T12:56:32.496Z,9.68
2023-10-18T12:59:13.456Z,9.72
2023-10-18T13:01:45.331Z,9.79
2023-10-18T13:04:18.747Z,9.81
2023-10-18T13:06:47.154Z,9.81
2023-10-18T13:09:20.837Z,9.81
2023-10-18T13:12:02.617Z,9.88
2023-10-18T13:14:33.545Z,9.84
2023-10-18T13:17:04.993Z,9.84
2023-10-18T13:19:34.025Z,9.83
2023-10-18T13:22:05.517Z,9.87
2023-10-18T13:24:34.168Z,9.92
2023-10-18T13:27:04.418Z,9.97
2023-10-18T13:29:32.932Z,9.94
2023-10-18T13:32:08.300Z,9.92
2023-10-18T13:34:40.589Z,9.93
2023-10-18T13:37:14.357Z,9.94
2023-10-18T13:39:44.029Z,9.92
2023-10-18T13:42:14.060Z,9.89
2023-10-18T13:44:42.727Z,9.91
2023-10-18T13:47:13.959Z,9.96
2023-10-18T13:49:43.282Z,9.93
2023-10-18T13:52:12.608Z,9.94
2023-10-18T13:54:41.996Z,9.94
2023-10-18T13:57:09.990Z,10.00
2023-10-18T13:59:40.379Z,9.96
2023-10-18T14:02:08.556Z,9.94
2023-10-18T14:04:37.096Z,9.91
2023-10-18T14:07:06.448Z,9.95
2023-10-18T14:09:36.394Z,10.03
2023-10-18T14:12:05.972Z,10.01
2023-10-18T14:14:34.684Z,10.02
2023-10-18T14:17:05.707Z,10.03
2023-10-18T14:19:34.163Z,10.04
2023-10-18T14:22:02.607Z,10.04
2023-10-18T14:24:31.128Z,10.09
2023-10-18T14:27:01.078Z,10.09
2023-10-18T14:29:29.471Z,10.06
2023-10-18T14:31:57.850Z,10.12
2023-10-18T14:34:27.003Z,10.10
2023-10-18T14:36:54.763Z,10.09
2023-10-18T14:39:38.234Z,10.23
2023-10-18T14:42:08.290Z,10.25
2023-10-18T14:44:36.752Z,10.21
2023-10-18T14:47:07.255Z,10.15
2023-10-18T14:49:40.286Z,10.09
2023-10-18T14:52:12.526Z,10.02
2023-10-18T14:54:42.403Z,9.97
2023-10-18T14:57:10.085Z,9.98
2023-10-18T14:59:39.271Z,9.88
2023-10-18T15:02:07.046Z,9.93
2023-10-18T15:04:36.159Z,9.84
2023-10-18T15:07:04.327Z,9.75
2023-10-18T15:09:32.262Z,9.76
2023-10-18T15:12:00.566Z,9.67
2023-10-18T15:14:28.451Z,9.63
2023-10-18T15:16:56.757Z,9.63
2023-10-18T15:19:24.546Z,9.54
2023-10-18T15:21:53.522Z,9.51
2023-10-18T15:24:21.788Z,9.46
2023-10-18T15:26:49.500Z,9.39
2023-10-18T15:29:19.507Z,9.33
2023-10-18T15:31:47.723Z,9.29
2023-10-18T15:34:15.729Z,9.23
2023-10-18T15:36:43.450Z,9.19
2023-10-18T15:39:15.433Z,9.11
2023-10-18T15:41:43.135Z,9.04
2023-10-18T15:44:11.581Z,8.96
2023-10-18T15:46:39.396Z,8.87
2023-10-18T15:49:07.965Z,8.77
2023-10-18T15:51:38.120Z,8.68
2023-10-18T15:54:07.545Z,8.60
2023-10-18T15:56:37.296Z,8.49
2023-10-18T15:59:06.402Z,8.43
2023-10-18T16:04:05.655Z,8.27
2023-10-18T16:06:33.395Z,8.17
2023-10-18T16:09:01.464Z,8.14
2023-10-18T16:11:29.208Z,8.12
2023-10-18T16:13:58.619Z,8.07
2023-10-18T16:16:27.045Z,8.02
2023-10-18T16:18:57.309Z,7.97
2023-10-18T16:21:25.859Z,7.93
2023-10-18T16:23:54.171Z,7.92
2023-10-18T16:26:24.596Z,7.88
2023-10-18T16:28:53.102Z,7.83
2023-10-18T16:31:24.865Z,7.80
2023-10-18T16:33:54.915Z,7.77
2023-10-18T16:36:23.142Z,7.72
2023-10-18T16:38:52.205Z,7.67
2023-10-18T16:41:20.727Z,7.59
2023-10-18T16:43:50.342Z,7.55
2023-10-18T16:46:21.494Z,7.50
2023-10-18T16:48:51.628Z,7.45
2023-10-18T16:51:19.772Z,7.42
2023-10-18T16:53:48.930Z,7.40
2023-10-18T16:56:17.261Z,7.38
2023-10-18T16:58:47.510Z,7.35
2023-10-18T17:01:18.634Z,7.29
2023-10-18T17:03:49.702Z,7.23
2023-10-18T17:06:19.481Z,7.20
2023-10-18T17:08:48.324Z,7.15
2023-10-18T17:11:19.125Z,7.13
2023-10-18T17:13:48.801Z,7.10
2023-10-18T17:16:19.230Z,7.07
2023-10-18T17:18:46.979Z,7.02
2023-10-18T17:21:20.326Z,6.99
2023-10-18T17:23:52.306Z,6.96
2023-10-18T17:26:20.653Z,6.93
2023-10-18T17:28:48.545Z,6.90
2023-10-18T17:31:21.593Z,6.83
2023-10-18T17:33:50.644Z,6.82
2023-10-18T17:36:19.671Z,6.81
2023-10-18T17:38:49.036Z,6.80
2023-10-18T17:41:18.342Z,6.77
2023-10-18T17:43:48.312Z,6.75
2023-10-18T17:46:16.981Z,6.71
2023-10-18T17:48:44.919Z,6.69
2023-10-18T17:51:13.182Z,6.65
2023-10-18T17:53:41.265Z,6.63
2023-10-18T17:56:11.971Z,6.65
2023-10-18T17:58:42.664Z,6.62
2023-10-18T18:01:22.431Z,6.58
2023-10-18T18:03:53.265Z,6.53
2023-10-18T18:06:21.927Z,6.49
2023-10-18T18:08:49.924Z,6.45
2023-10-18T18:11:26.148Z,6.41
2023-10-18T18:13:55.259Z,6.38
2023-10-18T18:16:23.777Z,6.39
2023-10-18T18:18:52.858Z,6.37
2023-10-18T18:21:22.559Z,6.36
2023-10-18T18:23:51.218Z,6.31
2023-10-18T18:26:21.038Z,6.27
2023-10-18T18:28:51.258Z,6.26
2023-10-18T18:31:20.440Z,6.27
2023-10-18T18:33:50.952Z,6.27
2023-10-18T18:36:18.979Z,6.25
2023-10-18T18:38:46.724Z,6.21
2023-10-18T18:41:15.973Z,6.17
2023-10-18T18:43:43.667Z,6.23
2023-10-18T18:46:20.972Z,6.21
2023-10-18T18:48:56.933Z,6.21
2023-10-18T18:51:25.016Z,6.23
2023-10-18T18:53:52.695Z,6.21
2023-10-18T18:56:22.038Z,6.24
2023-10-18T18:58:50.451Z,6.22
2023-10-18T19:01:19.220Z,6.22
2023-10-18T19:03:49.632Z,6.21
2023-10-18T19:06:18.805Z,6.18
2023-10-18T19:08:46.996Z,6.19
2023-10-18T19:11:24.368Z,6.19
2023-10-18T19:13:53.005Z,6.18
2023-10-18T19:16:21.185Z,6.21
2023-10-18T19:18:49.223Z,6.21
2023-10-18T19:21:19.156Z,6.21
2023-10-18T19:23:48.976Z,6.20
2023-10-18T19:26:18.464Z,6.17
2023-10-18T19:28:46.715Z,6.20
2023-10-18T19:31:18.080Z,6.19
2023-10-18T19:33:46.887Z,6.20
2023-10-18T19:36:16.546Z,6.20
2023-10-18T19:38:46.399Z,6.16
2023-10-18T19:41:18.133Z,6.16
2023-10-18T19:43:46.922Z,6.15
2023-10-18T19:46:14.699Z,6.14
2023-10-18T19:48:43.076Z,6.11
2023-10-18T19:51:14.348Z,6.10
2023-10-18T19:53:42.262Z,6.09
2023-10-18T19:56:15.303Z,6.08
2023-10-18T19:58:43.377Z,6.06
2023-10-18T20:01:11.128Z,6.08
2023-10-18T20:03:39.817Z,6.05
2023-10-18T20:06:08.489Z,6.08
2023-10-18T20:08:36.920Z,6.10
2023-10-18T20:11:06.566Z,6.10
2023-10-18T20:13:35.691Z,6.10
2023-10-18T20:16:03.738Z,6.11
2023-10-18T20:18:32.104Z,6.11
2023-10-18T20:21:01.044Z,6.10
2023-10-18T20:23:29.401Z,6.09
2023-10-18T20:26:01.351Z,6.09
2023-10-18T20:28:30.704Z,6.08
2023-10-18T20:31:00.474Z,6.11
2023-10-18T20:33:28.636Z,6.11
2023-10-18T20:35:56.896Z,6.14
2023-10-18T20:38:25.416Z,6.15
2023-10-18T20:40:55.060Z,6.16
2023-10-18T20:43:26.647Z,6.20
2023-10-18T20:46:05.963Z,6.21
2023-10-18T20:48:36.331Z,6.22
2023-10-18T20:51:07.496Z,6.20
2023-10-18T20:53:35.293Z,6.20
2023-10-18T20:56:03.392Z,6.22
2023-10-18T20:58:31.946Z,6.22
2023-10-18T21:01:02.115Z,6.25
2023-10-18T21:03:33.650Z,6.27
2023-10-18T21:06:02.043Z,6.28
2023-10-18T21:08:31.522Z,6.31
2023-10-18T21:10:59.234Z,6.34
2023-10-18T21:13:27.756Z,6.37
2023-10-18T21:15:55.882Z,6.37
2023-10-18T21:18:23.628Z,6.41
2023-10-18T21:21:00.234Z,6.48
2023-10-18T21:23:27.932Z,6.49
2023-10-18T21:25:56.108Z,6.59
2023-10-18T21:28:23.849Z,6.59
2023-10-18T21:30:52.796Z,6.64
2023-10-18T21:33:20.558Z,6.63
2023-10-18T21:35:48.315Z,6.64
2023-10-18T21:38:17.917Z,6.64
2023-10-18T21:40:46.619Z,6.65
2023-10-18T21:43:15.519Z,6.64
2023-10-18T21:45:43.915Z,6.62
2023-10-18T21:48:11.700Z,6.64
2023-10-18T21:50:40.454Z,6.60
2023-10-18T21:53:08.195Z,6.63
2023-10-18T21:55:37.919Z,6.67
2023-10-18T21:58:06.238Z,6.62
2023-10-18T22:00:42.071Z,6.64
2023-10-18T22:03:12.145Z,6.66
2023-10-18T22:05:43.458Z,6.60
2023-10-18T22:08:16.867Z,6.62
2023-10-18T22:10:46.949Z,6.62
2023-10-18T22:13:15.376Z,6.62
2023-10-18T22:15:49.629Z,6.63
2023-10-18T22:18:21.091Z,6.63
2023-10-18T22:20:48.856Z,6.62
2023-10-18T22:23:17.324Z,6.65
2023-10-18T22:26:02.057Z,6.64
2023-10-18T22:28:36.032Z,6.65
2023-10-18T22:31:04.518Z,6.61
2023-10-18T22:33:33.533Z,6.66
2023-10-18T22:36:01.788Z,6.64
2023-10-18T22:38:29.540Z,6.62
2023-10-18T22:41:12.300Z,6.62
2023-10-18T22:43:40.682Z,6.64
2023-10-18T22:46:17.054Z,6.63
2023-10-18T22:48:45.580Z,6.64
2023-10-18T22:51:32.999Z,6.64
2023-10-18T22:54:04.847Z,6.60
2023-10-18T22:56:53.207Z,6.63
2023-10-18T22:59:23.497Z,6.64
2023-10-18T23:01:51.665Z,6.63
2023-10-18T23:04:20.125Z,6.64
2023-10-18T23:06:49.503Z,6.64
2023-10-18T23:09:25.317Z,6.69
2023-10-18T23:11:58.723Z,6.66
2023-10-18T23:14:29.269Z,6.64
2023-10-18T23:17:10.995Z,6.61
2023-10-18T23:19:44.783Z,6.66
2023-10-18T23:22:20.935Z,6.65
2023-10-18T23:24:50.127Z,6.66
2023-10-18T23:27:37.717Z,6.66
2023-10-18T23:30:17.110Z,6.66
2023-10-18T23:32:56.425Z,6.67
2023-10-18T23:35:27.961Z,6.66
2023-10-18T23:38:10.095Z,6.67
2023-10-18T23:40:51.355Z,6.67
2023-10-18T23:43:47.636Z,6.67
2023-10-18T23:46:58.784Z,6.71
2023-10-18T23:49:29.937Z,6.77
2023-10-18T23:52:31.840Z,6.74
2023-10-18T23:54:58.831Z,6.70
2023-10-18T23:57:33.794Z,6.66
